Time;durP1;ratioP1;P1;durP2;ratioP2;P2;SDS_P1;SDS_P2;PMS_P1;PMS_P2;Temp;Humidity;BMP_temperature;BMP_pressure;BME280_temperature;BME280_humidity;BME280_pressure;Samples;Min_cycle;Max_cycle;Signal;HPM_P1;HPM_P2
2022/06/02 00:00:35;;;;;;;6.08;5.00;;;;;;;14.20;81.58;95785.05;1785945;80;21094;-64
2022/06/02 00:03:15;;;;;;;10.28;4.72;;;;;;;14.14;81.58;95786.11;1737657;82;21528;-64
2022/06/02 00:06:17;;;;;;;5.47;4.70;;;;;;;14.11;81.52;95792.84;1767868;81;21057;-64
2022/06/02 00:08:58;;;;;;;7.30;4.05;;;;;;;14.06;81.61;95790.31;1787463;80;20998;-64
2022/06/02 00:12:08;;;;;;;7.97;4.83;;;;;;;14.04;81.79;95785.97;1758619;81;21488;-64
2022/06/02 00:15:01;;;;;;;5.55;3.70;;;;;;;13.95;82.54;95787.55;1787778;80;21544;-64
2022/06/02 00:17:52;;;;;;;8.23;4.47;;;;;;;13.91;82.18;95784.55;1772075;80;21046;-64
2022/06/02 00:20:32;;;;;;;5.47;4.62;;;;;;;13.77;81.73;95783.17;1760154;81;20968;-64
2022/06/02 00:23:33;;;;;;;8.43;4.80;;;;;;;13.83;82.53;95777.72;1787790;80;21053;-65
2022/06/02 00:26:39;;;;;;;5.78;4.83;;;;;;;13.93;82.44;95780.08;1738115;82;21500;-64
2022/06/02 00:29:30;;;;;;;4.87;4.37;;;;;;;14.03;82.33;95773.59;1768555;81;21097;-64
2022/06/02 00:32:15;;;;;;;6.62;4.85;;;;;;;13.96;81.33;95773.36;1787368;80;21536;-64
2022/06/02 00:35:17;;;;;;;4.58;4.17;;;;;;;13.89;81.63;95772.69;1737565;82;21030;-64
2022/06/02 00:38:04;;;;;;;8.75;4.80;;;;;;;13.89;81.64;95779.78;1766935;81;21567;-64
2022/06/02 00:40:33;;;;;;;6.45;4.40;;;;;;;13.73;82.30;95780.18;1764559;81;21076;-64
2022/06/02 00:43:31;;;;;;;7.70;4.28;;;;;;;13.65;81.84;95772.91;1734340;83;21036;-64
2022/06/02 00:46:21;;;;;;;6.28;4.22;;;;;;;13.66;81.83;95776.42;1764233;81;20982;-64
2022/06/02 00:49:20;;;;;;;6.10;5.15;;;;;;;13.67;82.08;95776.85;1732870;82;21057;-64
2022/06/02 00:51:53;;;;;;;7.85;5.03;;;;;;;13.58;82.05;95779.28;1764813;81;21045;-64
2022/06/02 00:57:55;;;;;;;5.60;4.20;;;;;;;13.58;82.83;95784.16;1764634;81;20994;-64
2022/06/02 01:00:33;;;;;;;6.87;4.28;;;;;;;13.63;82.32;95783.58;1764778;81;20997;-64
2022/06/02 01:03:13;;;;;;;5.80;4.25;;;;;;;13.56;82.46;95785.11;1732922;83;20994;-64
2022/06/02 01:06:26;;;;;;;10.35;4.50;;;;;;;13.49;82.54;95784.86;1764674;81;21005;-64
2022/06/02 01:09:17;;;;;;;10.70;4.42;;;;;;;13.46;82.54;95780.50;1734608;82;21160;-64
2022/06/02 01:12:07;;;;;;;4.97;4.37;;;;;;;13.42;83.04;95790.30;1764672;81;21503;-64
2022/06/02 01:15:04;;;;;;;12.45;4.62;;;;;;;13.40;83.18;95788.14;1764847;81;20974;-63
2022/06/02 01:17:54;;;;;;;10.32;4.80;;;;;;;13.36;82.73;95789.62;1734592;83;21060;-63
2022/06/02 01:20:53;;;;;;;8.75;4.40;;;;;;;13.34;82.79;95788.32;1764683;81;21428;-64
2022/06/02 01:23:59;;;;;;;6.83;4.40;;;;;;;13.32;82.38;95790.59;1764399;81;21040;-64
2022/06/02 01:26:43;;;;;;;6.87;5.15;;;;;;;13.33;82.71;95784.37;1758580;81;21029;-64
2022/06/02 01:29:27;;;;;;;9.25;4.83;;;;;;;13.39;83.48;95780.25;1732720;83;21006;-64
2022/06/02 01:32:15;;;;;;;6.40;4.60;;;;;;;13.35;82.78;95774.60;1754854;81;21037;-64
2022/06/02 01:35:05;;;;;;;8.80;5.83;;;;;;;13.34;82.73;95772.88;1734591;83;21020;-64
2022/06/02 01:37:51;;;;;;;6.62;4.97;;;;;;;13.26;83.12;95776.16;1765306;80;21057;-64
2022/06/02 01:40:29;;;;;;;6.28;4.50;;;;;;;13.16;83.35;95771.09;1703427;82;21025;-64
2022/06/02 01:43:04;;;;;;;8.53;5.20;;;;;;;13.08;83.59;95765.13;1781566;80;21038;-64
2022/06/02 01:46:15;;;;;;;5.55;4.67;;;;;;;13.04;83.51;95765.23;1787702;80;21053;-64
2022/06/02 01:49:10;;;;;;;8.25;5.33;;;;;;;12.97;83.59;95770.67;1787843;80;21030;-64
2022/06/02 01:51:59;;;;;;;8.08;5.40;;;;;;;12.96;83.96;95773.38;1738348;82;21540;-64
2022/06/02 01:54:50;;;;;;;7.03;4.65;;;;;;;12.93;83.82;95776.97;1768136;81;21015;-64
2022/06/02 01:57:37;;;;;;;5.83;4.70;;;;;;;12.86;83.21;95771.41;1787803;80;21493;-64
2022/06/02 02:00:18;;;;;;;8.53;5.40;;;;;;;12.81;83.63;95779.06;1759810;81;21087;-64
2022/06/02 02:02:53;;;;;;;7.65;5.22;;;;;;;12.80;84.39;95766.28;1787740;80;21532;-64
2022/06/02 02:05:42;;;;;;;6.22;4.78;;;;;;;12.72;83.85;95774.38;1760216;81;21345;-64
2022/06/02 02:08:32;;;;;;;5.08;4.58;;;;;;;12.75;84.42;95778.73;1787810;80;20995;-64
2022/06/02 02:11:39;;;;;;;4.75;4.20;;;;;;;12.71;84.32;95776.62;1738337;82;20983;-64
2022/06/02 02:14:23;;;;;;;6.90;4.22;;;;;;;12.59;84.04;95773.40;1768553;81;21022;-64
2022/06/02 02:17:26;;;;;;;5.25;4.10;;;;;;;12.50;83.80;95771.84;1768479;81;21028;-65
2022/06/02 02:20:22;;;;;;;9.40;5.17;;;;;;;12.47;84.71;95775.44;1768992;81;20967;-64
2022/06/02 02:23:07;;;;;;;8.65;5.58;;;;;;;12.49;85.09;95771.41;1768159;81;21026;-65
2022/06/02 02:25:55;;;;;;;6.90;4.75;;;;;;;12.56;85.18;95769.05;1768522;81;21505;-64
2022/06/02 02:28:52;;;;;;;8.83;4.80;;;;;;;12.55;84.39;95773.94;1787670;80;21778;-64
2022/06/02 02:31:27;;;;;;;8.85;4.80;;;;;;;12.51;84.94;95778.41;1760301;81;21015;-64
2022/06/02 02:34:17;;;;;;;7.35;4.47;;;;;;;12.50;84.66;95771.39;1787436;80;21018;-64
2022/06/02 02:37:10;;;;;;;7.10;4.70;;;;;;;12.55;84.82;95772.16;1759783;81;21046;-64
2022/06/02 02:39:59;;;;;;;9.15;4.70;;;;;;;12.62;85.16;95768.02;1787755;80;21097;-64
2022/06/02 02:42:43;;;;;;;5.70;4.50;;;;;;;12.62;84.90;95773.31;1787682;80;21019;-64
2022/06/02 02:45:27;;;;;;;4.97;4.47;;;;;;;12.55;84.64;95780.09;1760231;81;21556;-64
2022/06/02 02:48:02;;;;;;;5.15;4.40;;;;;;;12.54;84.47;95784.09;1787815;80;21061;-64
2022/06/02 02:50:58;;;;;;;6.20;4.30;;;;;;;12.53;84.13;95787.66;1759159;81;21026;-64
2022/06/02 02:53:33;;;;;;;5.67;3.72;;;;;;;12.49;84.42;95784.64;1770385;80;21511;-64
2022/06/02 02:56:17;;;;;;;4.47;4.08;;;;;;;12.43;84.24;95780.83;1738131;82;21323;-65
2022/06/02 02:59:28;;;;;;;8.23;4.53;;;;;;;12.45;83.85;95781.22;1768680;81;21046;-65
2022/06/02 03:02:26;;;;;;;4.35;3.95;;;;;;;12.49;84.04;95778.89;1728566;83;21027;-64
2022/06/02 03:05:10;;;;;;;5.95;4.62;;;;;;;12.51;83.96;95777.55;1727452;83;21015;-64
2022/06/02 03:07:37;;;;;;;4.78;4.15;;;;;;;12.47;84.37;95780.73;1757665;81;21101;-64
2022/06/02 03:10:18;;;;;;;7.60;4.28;;;;;;;12.57;84.80;95772.09;1768420;81;21002;-64
2022/06/02 03:13:10;;;;;;;9.03;5.55;;;;;;;12.59;84.03;95779.55;1787740;80;21080;-64
2022/06/02 03:15:54;;;;;;;6.40;4.57;;;;;;;12.63;83.70;95781.23;1738828;82;21042;-64
2022/06/02 03:18:41;;;;;;;5.47;4.33;;;;;;;12.65;83.50;95778.10;1767085;81;21038;-64
2022/06/02 03:21:37;;;;;;;8.25;4.60;;;;;;;12.74;84.07;95783.62;1787713;80;21524;-64
2022/06/02 03:24:21;;;;;;;7.12;4.85;;;;;;;12.76;83.53;95783.13;1738382;82;21057;-64
2022/06/02 03:27:22;;;;;;;7.47;5.60;;;;;;;12.81;83.77;95781.70;1766415;81;21037;-64
2022/06/02 03:30:20;;;;;;;7.42;6.30;;;;;;;12.82;83.99;95779.00;1787640;80;21536;-64
2022/06/02 03:33:19;;;;;;;6.55;5.08;;;;;;;12.94;83.98;95773.41;1759903;81;21035;-65
2022/06/02 03:36:17;;;;;;;7.47;5.60;;;;;;;13.08;84.12;95776.16;1787263;80;21026;-64
2022/06/02 03:39:04;;;;;;;6.58;5.20;;;;;;;13.16;83.36;95783.47;1759814;81;21015;-64
2022/06/02 03:42:14;;;;;;;7.78;5.12;;;;;;;13.28;83.35;95781.87;1787682;80;21030;-64
2022/06/02 03:45:08;;;;;;;6.05;5.37;;;;;;;13.36;83.35;95781.20;1760617;81;21058;-64
2022/06/02 03:48:12;;;;;;;6.45;4.90;;;;;;;13.41;82.56;95788.58;1787591;80;21062;-64
2022/06/02 03:51:05;;;;;;;7.15;5.90;;;;;;;13.40;82.86;95790.79;1759570;81;21563;-64
2022/06/02 03:54:01;;;;;;;7.95;4.58;;;;;;;13.54;82.92;95789.11;1787314;80;21011;-64
2022/06/02 03:57:16;;;;;;;6.30;5.05;;;;;;;13.56;82.18;95789.95;1724633;82;21022;-64
2022/06/02 04:00:03;;;;;;;7.05;4.70;;;;;;;13.48;82.99;95785.31;1787515;80;21003;-64
2022/06/02 04:02:42;;;;;;;8.38;5.15;;;;;;;13.55;82.87;95784.21;1760466;81;21575;-64
2022/06/02 04:05:36;;;;;;;8.83;5.50;;;;;;;13.64;83.58;95782.64;1787749;80;21572;-64
2022/06/02 04:08:35;;;;;;;6.60;5.37;;;;;;;13.81;84.12;95782.65;1759872;81;21017;-64
2022/06/02 04:11:24;;;;;;;5.97;5.37;;;;;;;14.01;83.94;95788.68;1787653;80;20998;-65
2022/06/02 04:14:05;;;;;;;7.60;6.05;;;;;;;14.23;83.69;95782.30;1787677;80;21405;-65
2022/06/02 04:16:54;;;;;;;7.90;6.42;;;;;;;14.39;83.36;95783.59;1760289;81;21560;-64
2022/06/02 04:22:54;;;;;;;12.80;8.75;;;;;;;14.73;83.02;95780.37;1754882;82;21002;-64
2022/06/02 04:25:56;;;;;;;10.75;6.95;;;;;;;14.95;82.72;95777.43;1787484;80;21023;-64
2022/06/02 04:28:48;;;;;;;16.02;6.72;;;;;;;15.12;82.32;95771.09;1787274;80;21030;-64
2022/06/02 04:31:50;;;;;;;9.80;6.40;;;;;;;15.26;81.78;95773.27;1759814;81;21026;-64
2022/06/02 04:34:46;;;;;;;11.73;6.15;;;;;;;15.34;81.98;95777.00;1750816;81;21050;-64
2022/06/02 04:37:28;;;;;;;14.25;5.92;;;;;;;15.47;81.44;95772.13;1750632;82;21001;-64
2022/06/02 04:40:11;;;;;;;15.50;6.53;;;;;;;15.58;81.60;95774.82;1700980;83;21009;-64
2022/06/02 04:42:49;;;;;;;8.83;6.47;;;;;;;15.69;81.40;95770.91;1760830;81;21017;-64
2022/06/02 04:45:28;;;;;;;10.45;6.83;;;;;;;15.75;81.28;95772.07;1733894;83;21037;-64
2022/06/02 04:48:39;;;;;;;17.95;7.37;;;;;;;15.79;81.39;95767.89;1764331;81;21033;-64
2022/06/02 04:51:33;;;;;;;14.90;7.90;;;;;;;15.92;81.55;95776.75;1764953;81;20997;-64
2022/06/02 04:54:32;;;;;;;15.65;7.30;;;;;;;16.01;81.34;95769.78;1760518;81;21009;-64
2022/06/02 04:57:06;;;;;;;12.03;7.78;;;;;;;16.10;81.02;95773.44;1734343;82;21093;-64
2022/06/02 04:59:55;;;;;;;17.30;7.60;;;;;;;16.13;80.62;95775.98;1764793;81;20969;-64
2022/06/02 05:02:33;;;;;;;15.20;7.53;;;;;;;16.18;80.68;95776.67;1763315;81;20990;-65
2022/06/02 05:05:23;;;;;;;15.60;8.33;;;;;;;16.24;80.69;95778.23;1763880;81;21021;-64
2022/06/02 05:08:13;;;;;;;11.90;7.47;;;;;;;16.33;80.49;95776.55;1732114;83;21368;-63
2022/06/02 05:10:51;;;;;;;10.58;7.72;;;;;;;16.42;80.48;95773.98;1758990;81;21092;-65
2022/06/02 05:13:44;;;;;;;10.58;7.55;;;;;;;16.51;80.38;95764.32;1736797;81;20959;-67
2022/06/02 05:16:48;;;;;;;13.50;8.18;;;;;;;16.62;80.06;95774.55;1732941;82;21535;-67
2022/06/02 05:19:25;;;;;;;10.80;7.50;;;;;;;16.71;80.27;95768.86;1764596;81;21065;-65
2022/06/02 05:22:03;;;;;;;15.20;7.70;;;;;;;16.79;80.33;95763.26;1732587;83;20989;-66
2022/06/02 05:24:58;;;;;;;10.43;7.97;;;;;;;16.89;79.87;95763.76;1764060;81;21542;-66
2022/06/02 05:27:42;;;;;;;14.05;7.42;;;;;;;16.94;79.50;95762.63;1733868;83;21068;-66
2022/06/02 05:30:23;;;;;;;12.95;6.28;;;;;;;17.07;79.65;95762.52;1764476;81;21033;-67
2022/06/02 05:33:18;;;;;;;8.28;5.80;;;;;;;17.25;79.41;95760.88;1764413;81;20997;-67
2022/06/02 05:36:11;;;;;;;9.78;5.12;;;;;;;17.41;79.36;95765.13;1734455;82;21025;-66
2022/06/02 05:39:05;;;;;;;7.97;5.30;;;;;;;17.63;79.05;95761.51;1764533;81;21021;-64
2022/06/02 05:41:43;;;;;;;;;;;;;;;17.80;78.64;95764.34;1767297;81;21013;-65
2022/06/02 05:44:39;;;;;;;6.55;5.42;;;;;;;17.95;75.87;95765.47;1761262;81;20130;-65
2022/06/02 05:47:42;;;;;;;9.43;4.95;;;;;;;18.06;77.39;95763.16;1740571;82;21065;-67
2022/06/02 05:50:53;;;;;;;7.25;4.80;;;;;;;18.30;77.82;95762.52;1739900;82;20955;-64
2022/06/02 05:53:55;;;;;;;7.97;5.35;;;;;;;18.50;77.01;95764.27;1749774;81;20999;-64
2022/06/02 05:56:39;;;;;;;7.10;4.85;;;;;;;18.73;76.32;95751.61;1661214;84;21031;-63
2022/06/02 05:59:27;;;;;;;8.15;4.70;;;;;;;18.94;76.56;95753.73;1739019;82;21011;-63
2022/06/02 06:02:18;;;;;;;7.47;4.62;;;;;;;19.20;75.65;95759.12;1766389;81;20998;-64
2022/06/02 06:05:14;;;;;;;8.15;5.65;;;;;;;19.31;73.73;95750.10;1737702;81;21037;-63
2022/06/02 06:07:57;;;;;;;6.90;5.28;;;;;;;19.46;74.37;95750.66;1750351;81;21066;-64
2022/06/02 06:10:41;;;;;;;6.67;5.28;;;;;;;19.64;71.32;95756.02;1765380;81;21073;-64
2022/06/02 06:13:38;;;;;;;9.28;5.37;;;;;;;19.66;69.24;95755.47;1765171;81;21034;-67
2022/06/02 06:16:19;;;;;;;6.87;5.67;;;;;;;19.85;71.54;95763.42;1757729;81;21057;-65
2022/06/02 06:19:17;;;;;;;7.50;5.53;;;;;;;20.04;71.40;95762.85;1759957;81;21022;-66
2022/06/02 06:22:04;;;;;;;8.93;5.62;;;;;;;20.26;70.66;95766.59;1734404;81;21007;-66
2022/06/02 06:25:00;;;;;;;9.03;6.08;;;;;;;20.45;69.12;95763.76;1740013;82;22213;-68
2022/06/02 06:27:41;;;;;;;10.68;5.80;;;;;;;20.63;69.55;95758.36;1747376;80;21014;-69
2022/06/02 06:30:45;;;;;;;7.42;6.10;;;;;;;20.79;68.58;95762.38;1755335;80;20971;-65
2022/06/02 06:33:45;;;;;;;6.97;6.08;;;;;;;20.91;68.17;95753.65;1749132;81;20979;-64
2022/06/02 06:36:58;;;;;;;6.78;5.55;;;;;;;21.02;67.62;95753.92;1748162;80;20959;-65
2022/06/02 06:39:42;;;;;;;8.70;5.95;;;;;;;21.16;65.88;95756.65;1730275;83;21078;-65
2022/06/02 06:42:45;;;;;;;9.90;8.70;;;;;;;21.33;67.08;95748.11;1756032;81;20991;-64
2022/06/02 06:45:29;;;;;;;8.38;5.95;;;;;;;21.49;67.13;95754.32;1765358;81;21022;-64
2022/06/02 06:48:01;;;;;;;6.37;5.42;;;;;;;21.75;67.17;95747.90;1765164;81;21037;-66
2022/06/02 06:50:55;;;;;;;7.15;5.62;;;;;;;21.96;66.10;95738.52;1732956;81;21580;-69
2022/06/02 06:53:45;;;;;;;;;;;;;;;22.10;63.89;95747.09;1759010;81;21077;-68
2022/06/02 06:56:20;;;;;;;10.90;6.35;;;;;;;22.28;61.44;95741.08;1765161;81;20114;-64
2022/06/02 06:59:15;;;;;;;9.40;5.95;;;;;;;22.54;63.24;95746.14;1765405;81;21022;-67
2022/06/02 07:02:18;;;;;;;5.72;5.17;;;;;;;22.71;61.91;95738.84;1764038;81;21041;-66
2022/06/02 07:05:06;;;;;;;10.32;5.58;;;;;;;22.75;62.62;95744.38;1764708;81;21516;-67
2022/06/02 07:07:41;;;;;;;7.83;5.47;;;;;;;22.58;61.59;95743.66;1765044;81;21054;-74
2022/06/02 07:10:29;;;;;;;8.20;6.47;;;;;;;22.49;62.28;95750.09;1763273;81;21106;-64
2022/06/02 07:13:09;;;;;;;8.88;5.55;;;;;;;22.43;62.63;95744.14;1756275;80;20990;-65
2022/06/02 07:16:13;;;;;;;9.30;6.28;;;;;;;22.46;62.97;95745.28;1771913;79;21147;-64
2022/06/02 07:19:22;;;;;;;7.72;5.25;;;;;;;22.50;62.79;95752.66;1750745;81;21527;-63
2022/06/02 07:21:59;;;;;;;8.45;5.42;;;;;;;22.49;62.38;95752.30;1756191;81;21060;-63
2022/06/02 07:24:40;;;;;;;10.72;5.60;;;;;;;22.50;62.06;95751.80;1756114;82;21507;-64
2022/06/02 07:27:32;;;;;;;8.08;5.67;;;;;;;22.54;60.55;95757.38;1756361;82;20994;-64
2022/06/02 07:30:39;;;;;;;9.08;5.60;;;;;;;22.68;62.26;95762.76;1756833;82;21038;-64
2022/06/02 07:33:29;;;;;;;9.00;5.28;;;;;;;22.86;62.22;95760.22;1756486;82;21066;-66
2022/06/02 07:36:22;;;;;;;7.03;5.80;;;;;;;22.99;61.02;95760.81;1756393;82;21030;-65
2022/06/02 07:39:15;;;;;;;8.63;5.80;;;;;;;23.11;60.30;95767.59;1756225;82;21597;-67
2022/06/02 07:42:09;;;;;;;7.70;5.87;;;;;;;23.30;61.08;95765.03;1756398;82;21053;-67
2022/06/02 07:44:56;;;;;;;9.25;6.05;;;;;;;23.38;60.59;95761.83;1756162;82;21125;-67
2022/06/02 07:47:56;;;;;;;9.25;5.78;;;;;;;23.46;61.62;95759.02;1755447;82;20991;-65
2022/06/02 07:50:35;;;;;;;12.23;5.90;;;;;;;23.57;60.60;95758.28;1756630;81;21019;-69
2022/06/02 07:53:28;;;;;;;8.95;5.37;;;;;;;23.73;61.07;95762.17;1755815;82;21019;-67
2022/06/02 07:56:05;;;;;;;8.13;5.62;;;;;;;23.92;60.82;95763.99;1756647;82;21061;-66
2022/06/02 07:59:01;;;;;;;7.58;5.65;;;;;;;24.08;58.80;95761.09;1756080;81;21062;-67
2022/06/02 08:01:50;;;;;;;13.43;5.50;;;;;;;24.19;59.79;95758.52;1778993;80;20995;-67
2022/06/02 08:04:30;;;;;;;11.50;5.03;;;;;;;24.35;58.91;95763.69;1735199;81;21543;-67
2022/06/02 08:07:11;;;;;;;13.80;5.67;;;;;;;24.41;56.17;95759.69;1755391;81;21065;-71
2022/06/02 08:09:49;;;;;;;10.08;5.05;;;;;;;24.49;56.27;95760.52;1756203;81;21034;-69
2022/06/02 08:12:33;;;;;;;9.35;4.72;;;;;;;24.57;56.46;95764.42;1753168;82;21507;-65
2022/06/02 08:15:15;;;;;;;8.85;5.15;;;;;;;24.67;56.12;95759.69;1778078;80;21035;-65
2022/06/02 08:18:05;;;;;;;12.53;5.40;;;;;;;24.90;55.20;95754.00;1778541;80;21035;-64
2022/06/02 08:21:15;;;;;;;10.28;5.17;;;;;;;25.10;54.74;95759.27;1773274;81;21050;-65
2022/06/02 08:23:43;;;;;;;9.93;4.90;;;;;;;25.25;55.28;95752.30;1752663;82;21141;-65
2022/06/02 08:26:42;;;;;;;8.93;4.83;;;;;;;25.61;55.41;95753.20;1753960;81;21525;-65
2022/06/02 08:29:24;;;;;;;9.18;4.83;;;;;;;25.94;54.50;95748.06;1777812;81;21082;-67
2022/06/02 08:31:56;;;;;;;14.63;5.03;;;;;;;26.09;52.89;95747.73;1778410;81;20999;-68
2022/06/02 08:34:49;;;;;;;6.08;4.65;;;;;;;26.30;52.95;95753.78;1754109;82;21038;-67
2022/06/02 08:37:44;;;;;;;8.83;5.00;;;;;;;26.28;50.46;95755.74;1767652;81;21102;-69
2022/06/02 08:40:33;;;;;;;9.93;4.83;;;;;;;25.87;51.23;95760.69;1744322;81;21336;-70
2022/06/02 08:43:39;;;;;;;8.85;4.65;;;;;;;25.50;51.23;95764.43;1776208;81;21089;-69
2022/06/02 08:46:49;;;;;;;6.67;4.83;;;;;;;25.16;52.65;95761.06;1766802;81;20999;-66
2022/06/02 08:50:10;;;;;;;5.92;4.17;;;;;;;24.87;53.15;95773.09;1755141;81;21010;-68
2022/06/02 08:53:03;;;;;;;7.25;5.05;;;;;;;25.04;53.61;95775.43;1763782;81;21089;-67
2022/06/02 08:56:01;;;;;;;6.95;4.42;;;;;;;25.32;52.33;95776.13;1767798;81;20969;-68
2022/06/02 08:58:45;;;;;;;9.65;4.75;;;;;;;25.72;50.83;95778.05;1766339;81;20998;-67
2022/06/02 09:01:39;;;;;;;10.55;4.83;;;;;;;25.94;51.50;95775.10;1767871;81;21014;-67
2022/06/02 09:04:28;;;;;;;8.23;4.75;;;;;;;26.25;50.84;95770.37;1768680;81;21050;-66
2022/06/02 09:07:18;;;;;;;10.18;4.75;;;;;;;26.26;50.50;95772.61;1786451;80;21009;-64
2022/06/02 09:10:30;;;;;;;7.62;4.90;;;;;;;26.23;50.06;95768.77;1788879;80;21011;-65
2022/06/02 09:13:02;;;;;;;12.28;4.95;;;;;;;26.08;49.20;95778.47;1792784;80;21026;-65
2022/06/02 09:16:06;;;;;;;7.08;4.75;;;;;;;25.93;48.98;95781.00;1760067;81;21532;-65
2022/06/02 09:19:17;;;;;;;10.03;4.83;;;;;;;25.80;50.91;95774.76;1745579;82;21108;-63
2022/06/02 09:22:07;;;;;;;9.08;5.42;;;;;;;25.74;51.39;95776.09;1767472;81;21081;-62
2022/06/02 09:25:07;;;;;;;8.98;4.90;;;;;;;25.68;51.63;95776.58;1768981;81;21055;-63
2022/06/02 09:27:55;;;;;;;11.60;6.17;;;;;;;25.60;51.04;95774.45;1768564;81;21052;-63
2022/06/02 09:30:51;;;;;;;15.75;5.65;;;;;;;25.57;51.88;95777.36;1768217;81;21028;-63
2022/06/02 09:34:03;;;;;;;8.50;4.90;;;;;;;25.85;52.65;95782.06;1768977;81;21087;-63
2022/06/02 09:37:04;;;;;;;7.37;5.10;;;;;;;25.87;51.34;95781.45;1768862;81;21004;-63
2022/06/02 09:39:48;;;;;;;8.33;5.17;;;;;;;25.68;51.21;95778.78;1768908;81;21032;-63
2022/06/02 09:42:49;;;;;;;8.18;4.75;;;;;;;25.52;51.19;95770.59;1750069;81;21072;-63
2022/06/02 09:45:43;;;;;;;7.67;4.92;;;;;;;25.50;52.00;95772.53;1696557;84;21078;-63
2022/06/02 09:48:30;;;;;;;6.28;4.65;;;;;;;25.48;52.10;95778.08;1752013;81;21433;-63
2022/06/02 09:51:39;;;;;;;13.18;5.10;;;;;;;25.44;52.26;95774.72;1761277;81;21013;-63
2022/06/02 09:54:38;;;;;;;8.55;5.30;;;;;;;25.46;52.71;95774.62;1761128;81;21064;-62
2022/06/02 10:00:42;;;;;;;10.58;4.62;;;;;;;25.43;52.20;95783.81;1761262;81;21088;-62
2022/06/02 10:03:26;;;;;;;8.73;5.05;;;;;;;25.46;51.73;95783.58;1761407;81;20982;-62
2022/06/02 10:06:07;;;;;;;7.03;4.17;;;;;;;25.85;51.27;95780.21;1761229;81;21009;-62
2022/06/02 10:08:48;;;;;;;8.65;4.83;;;;;;;26.36;50.38;95774.08;1761305;81;21096;-63
2022/06/02 10:11:26;;;;;;;10.38;4.42;;;;;;;26.82;49.47;95770.47;1761546;81;20985;-63
2022/06/02 10:14:19;;;;;;;7.97;4.80;;;;;;;26.91;48.71;95776.47;1759684;81;21009;-63
2022/06/02 10:17:14;;;;;;;11.48;4.40;;;;;;;26.93;47.34;95781.28;1761543;81;21013;-63
2022/06/02 10:20:16;;;;;;;8.20;4.58;;;;;;;26.95;48.65;95769.84;1760658;81;21048;-63
2022/06/02 10:23:18;;;;;;;13.48;4.45;;;;;;;26.83;49.20;95774.39;1761603;81;21072;-63
2022/06/02 10:26:13;;;;;;;8.38;4.67;;;;;;;26.73;49.23;95772.05;1761588;81;21087;-63
2022/06/02 10:29:28;;;;;;;10.53;4.78;;;;;;;26.84;49.51;95773.42;1761565;81;21459;-63
2022/06/02 10:32:32;;;;;;;8.08;4.00;;;;;;;27.24;48.05;95763.44;1761683;81;21502;-62
2022/06/02 10:35:20;;;;;;;13.50;4.95;;;;;;;27.27;47.37;95765.03;1761821;81;20985;-62
2022/06/02 10:38:03;;;;;;;9.35;4.97;;;;;;;27.37;47.62;95761.42;1761039;81;21024;-62
2022/06/02 10:41:07;;;;;;;;;;;;;;;27.62;47.09;95762.95;1761747;81;21119;-62
2022/06/02 10:43:48;;;;;;;6.42;4.17;;;;;;;27.54;46.34;95758.67;1734070;83;20119;-63
2022/06/02 10:46:46;;;;;;;7.35;4.60;;;;;;;27.50;45.20;95760.41;1739765;82;21029;-62
2022/06/02 10:49:46;;;;;;;6.62;4.33;;;;;;;27.52;46.08;95760.65;1740482;82;21077;-63
2022/06/02 10:53:09;;;;;;;7.85;4.20;;;;;;;27.35;46.19;95769.31;1740286;82;21038;-63
2022/06/02 10:55:52;;;;;;;7.40;4.75;;;;;;;27.05;47.46;95778.08;1740474;82;20970;-63
2022/06/02 10:58:59;;;;;;;8.93;4.62;;;;;;;26.70;48.21;95777.22;1740402;82;21054;-63
2022/06/02 11:02:21;;;;;;;6.85;4.40;;;;;;;26.57;48.85;95779.19;1740218;82;21535;-63
2022/06/02 11:05:09;;;;;;;6.63;4.43;;;;;;;26.33;49.24;95777.42;1740942;82;21065;-62
2022/06/02 11:08:09;;;;;;;7.53;4.70;;;;;;;26.05;48.84;95777.83;1740068;82;21042;-62
2022/06/02 11:11:18;;;;;;;8.00;4.05;;;;;;;25.69;49.45;95779.14;1740245;82;21122;-62
2022/06/02 11:14:10;;;;;;;9.38;4.85;;;;;;;25.48;48.95;95768.63;1739870;82;21006;-62
2022/06/02 11:17:05;;;;;;;7.92;4.67;;;;;;;25.30;50.21;95772.67;1739958;82;21010;-62
2022/06/02 11:20:01;;;;;;;8.20;5.10;;;;;;;25.13;49.92;95772.06;1740570;82;21534;-62
2022/06/02 11:23:05;;;;;;;6.25;4.10;;;;;;;25.05;50.92;95788.83;1740219;82;21082;-63
2022/06/02 11:26:03;;;;;;;9.73;4.87;;;;;;;24.92;50.94;95788.47;1740514;82;21050;-63
2022/06/02 11:28:56;;;;;;;9.98;4.70;;;;;;;24.92;51.83;95792.05;1740454;82;21073;-63
2022/06/02 11:31:59;;;;;;;6.45;4.67;;;;;;;24.92;51.34;95792.52;1740471;82;21543;-63
2022/06/02 11:34:52;;;;;;;8.30;4.50;;;;;;;25.03;50.02;95780.47;1740650;82;21042;-63
2022/06/02 11:37:33;;;;;;;6.12;4.50;;;;;;;25.48;50.91;95778.93;1740512;82;21046;-63
2022/06/02 11:40:20;;;;;;;4.60;3.42;;;;;;;26.04;50.21;95778.32;1740251;82;21121;-63
2022/06/02 11:43:15;;;;;;;5.30;3.62;;;;;;;26.91;48.60;95780.53;1732293;82;21121;-62
2022/06/02 11:46:04;;;;;;;5.65;3.55;;;;;;;27.24;44.21;95770.68;1732458;83;21026;-62
2022/06/02 11:49:20;;;;;;;6.58;3.75;;;;;;;27.69;45.96;95774.62;1702467;83;21340;-63
2022/06/02 11:52:34;;;;;;;4.47;3.85;;;;;;;27.66;43.32;95786.58;1732171;83;21591;-62
2022/06/02 11:55:27;;;;;;;5.80;3.77;;;;;;;27.23;45.17;95787.94;1732521;83;21049;-62
2022/06/02 11:58:12;;;;;;;;;;;;;;;27.77;44.50;95785.20;1712369;83;21524;-63
2022/06/02 12:01:02;;;;;;;7.47;4.50;;;;;;;28.25;46.37;95787.47;1756127;82;20146;-63
2022/06/02 12:03:59;;;;;;;9.60;5.72;;;;;;;28.21;46.08;95789.22;1756005;82;21021;-63
2022/06/02 12:06:54;;;;;;;9.25;5.10;;;;;;;27.87;47.16;95785.33;1756200;82;21016;-63
2022/06/02 12:10:19;;;;;;;9.50;5.90;;;;;;;27.35;47.86;95785.58;1755772;82;21553;-63
2022/06/02 12:13:09;;;;;;;9.35;5.08;;;;;;;26.90;48.62;95793.72;1756035;81;21032;-63
2022/06/02 12:16:21;;;;;;;7.90;4.97;;;;;;;26.61;50.84;95784.74;1753705;82;20990;-62
2022/06/02 12:19:37;;;;;;;8.28;5.28;;;;;;;26.70;50.87;95789.40;1756250;82;20982;-62
2022/06/02 12:22:38;;;;;;;7.25;4.83;;;;;;;26.79;50.23;95791.88;1756179;81;21026;-62
2022/06/02 12:25:21;;;;;;;6.55;5.40;;;;;;;26.84;50.34;95796.90;1755668;82;21025;-63
2022/06/02 12:28:20;;;;;;;7.65;4.90;;;;;;;26.92;52.07;95795.81;1756232;82;21040;-63
2022/06/02 12:30:55;;;;;;;4.35;3.83;;;;;;;26.95;51.86;95791.50;1756375;82;21029;-65
2022/06/02 12:33:46;;;;;;;6.00;4.17;;;;;;;26.71;52.33;95787.08;1751038;82;21001;-64
2022/06/02 12:36:24;;;;;;;6.33;3.98;;;;;;;26.57;53.21;95791.37;1755803;82;21049;-64
2022/06/02 12:39:13;;;;;;;6.78;3.90;;;;;;;26.47;52.89;95795.25;1755326;82;21353;-64
2022/06/02 12:42:20;;;;;;;5.28;3.90;;;;;;;26.27;53.26;95794.11;1757856;81;21005;-64
2022/06/02 12:45:28;;;;;;;9.25;4.08;;;;;;;26.05;54.31;95795.40;1761506;81;21015;-64
2022/06/02 12:48:20;;;;;;;9.65;4.30;;;;;;;25.77;55.66;95795.27;1761640;81;21001;-64
2022/06/02 12:51:33;;;;;;;8.28;4.47;;;;;;;25.69;55.60;95793.15;1761540;81;21459;-64
2022/06/02 12:54:40;;;;;;;8.03;4.33;;;;;;;25.72;55.64;95795.61;1761343;81;21045;-64
2022/06/02 12:57:37;;;;;;;5.83;4.20;;;;;;;25.63;57.79;95782.81;1761632;81;21013;-64
2022/06/02 13:00:45;;;;;;;6.58;4.30;;;;;;;25.50;57.71;95784.70;1760987;81;21032;-63
2022/06/02 13:03:42;;;;;;;4.80;4.33;;;;;;;25.45;57.75;95782.33;1761543;81;21063;-63
2022/06/02 13:06:30;;;;;;;4.92;4.37;;;;;;;25.82;56.46;95775.51;1761276;81;21523;-63
2022/06/02 13:09:37;;;;;;;6.47;4.55;;;;;;;26.06;55.92;95780.92;1761261;81;20986;-63
2022/06/02 13:12:31;;;;;;;8.25;5.03;;;;;;;26.20;55.51;95776.63;1761195;81;20973;-63
2022/06/02 13:15:23;;;;;;;7.67;4.40;;;;;;;26.15;55.21;95784.24;1761200;81;20989;-63
2022/06/02 13:18:17;;;;;;;4.85;4.10;;;;;;;25.98;54.15;95780.16;1760290;81;21558;-63
2022/06/02 13:21:16;;;;;;;5.55;4.30;;;;;;;25.90;54.09;95784.81;1761152;81;21795;-63
2022/06/02 13:24:16;;;;;;;7.10;4.12;;;;;;;26.15;54.93;95793.70;1761390;81;20997;-64
2022/06/02 13:27:22;;;;;;;9.78;4.30;;;;;;;26.88;54.62;95787.06;1760922;81;21030;-64
2022/06/02 13:30:31;;;;;;;9.45;4.12;;;;;;;27.11;53.44;95783.84;1761290;81;21025;-64
2022/06/02 13:33:30;;;;;;;6.37;4.40;;;;;;;26.91;53.03;95780.07;1761497;81;21459;-64
2022/06/02 13:36:21;;;;;;;6.65;4.50;;;;;;;26.79;53.22;95782.41;1761345;81;21017;-63
2022/06/02 13:39:25;;;;;;;9.18;4.20;;;;;;;26.59;53.83;95789.41;1761500;81;20993;-63